Terminal Aerodrome Forecast
Issued by NWS Wakefield, VA

Current Version | Previous Version | Text Only | Print | Product List | Glossary On
Versions: 1 2 3 4 5 6 7 8 9 10 11 12 13 14 15 16 17
495
FTUS41 KAKQ 120520
TAFECG
TAF
KECG 120520Z 1206/1306 34010KT P6SM BKN250
     FM121300 04005KT P6SM OVC080
     FM121700 07006KT 2SM -SN BR OVC015
     FM121900 06006KT 1/2SM SN FG OVC005
     FM122100 36005KT 3SM -SNPL BR OVC008
     FM130200 32005KT 4SM BR OVC012=

USA.gov is the U.S. government's official web portal to all federal, state and local government web resources and services.